createdAt,value
2018-04-19T00:00:54.672Z,7.37
2018-04-19T00:03:23.494Z,8.30
2018-04-19T00:05:51.197Z,6.90
2018-04-19T00:08:18.848Z,7.30
2018-04-19T00:10:46.449Z,6.60
2018-04-19T00:13:14.034Z,7.37
2018-04-19T00:15:41.668Z,6.80
2018-04-19T00:18:09.954Z,7.80
2018-04-19T00:20:37.624Z,8.03
2018-04-19T00:23:05.302Z,7.10
2018-04-19T00:25:33.076Z,7.30
2018-04-19T00:28:00.824Z,8.03
2018-04-19T00:30:28.357Z,7.07
2018-04-19T00:32:56.487Z,6.93
2018-04-19T00:35:24.270Z,7.35
2018-04-19T00:37:51.929Z,7.10
2018-04-19T00:40:19.509Z,7.83
2018-04-19T00:42:47.255Z,7.70
2018-04-19T00:45:14.808Z,7.50
2018-04-19T00:47:42.413Z,8.50
2018-04-19T00:50:10.083Z,7.43
2018-04-19T00:52:50.088Z,7.23
2018-04-19T00:55:17.604Z,8.27
2018-04-19T00:57:45.194Z,7.10
2018-04-19T01:00:12.958Z,7.30
2018-04-19T01:02:41.350Z,7.97
2018-04-19T01:05:09.566Z,7.23
2018-04-19T01:07:37.233Z,7.37
2018-04-19T01:10:04.848Z,7.53
2018-04-19T01:12:32.489Z,7.50
2018-04-19T01:15:00.087Z,7.73
2018-04-19T01:17:27.780Z,7.85
2018-04-19T01:19:55.306Z,8.10
2018-04-19T01:22:23.013Z,7.00
2018-04-19T01:24:50.613Z,8.00
2018-04-19T01:27:18.433Z,8.63
2018-04-19T01:29:46.051Z,8.43
2018-04-19T01:32:13.864Z,7.10
2018-04-19T01:34:41.819Z,7.75
2018-04-19T01:37:09.728Z,8.17
2018-04-19T01:39:37.293Z,8.60
2018-04-19T01:42:05.265Z,9.00
2018-04-19T01:44:32.803Z,9.60
2018-04-19T01:47:00.430Z,9.13
2018-04-19T01:49:28.168Z,7.80
2018-04-19T01:51:55.696Z,8.83
2018-04-19T01:54:23.495Z,9.60
2018-04-19T01:56:51.049Z,10.00
2018-04-19T01:59:18.749Z,10.17
2018-04-19T02:01:46.500Z,9.23
2018-04-19T02:04:14.268Z,9.00
2018-04-19T02:06:42.204Z,10.27
2018-04-19T02:09:10.022Z,10.50
2018-04-19T02:11:37.775Z,10.07
2018-04-19T02:14:05.334Z,8.90
2018-04-19T02:16:33.103Z,9.50
2018-04-19T02:19:00.770Z,9.07
2018-04-19T02:21:28.348Z,9.30
2018-04-19T02:23:56.036Z,8.97
2018-04-19T02:26:24.004Z,8.90
2018-04-19T02:28:51.616Z,9.77
2018-04-19T02:31:19.259Z,8.73
2018-04-19T02:33:46.873Z,9.40
2018-04-19T02:36:14.589Z,10.13
2018-04-19T02:38:43.196Z,10.77
2018-04-19T02:41:10.896Z,10.50
2018-04-19T02:43:38.674Z,9.67
2018-04-19T02:46:06.595Z,9.50
2018-04-19T02:48:34.289Z,9.40
2018-04-19T02:51:02.110Z,9.07
2018-04-19T02:53:29.900Z,9.33
2018-04-19T02:55:57.404Z,9.43
2018-04-19T02:58:25.239Z,9.03
2018-04-19T03:00:52.905Z,10.90
2018-04-19T03:03:20.871Z,10.70
2018-04-19T03:05:48.400Z,10.80
2018-04-19T03:08:16.058Z,12.33
2018-04-19T03:10:43.651Z,10.73
2018-04-19T03:13:11.359Z,12.70
2018-04-19T03:15:39.183Z,12.20
2018-04-19T03:18:06.806Z,14.00
2018-04-19T03:20:34.610Z,13.07
2018-04-19T03:23:02.223Z,12.93
2018-04-19T03:25:29.815Z,13.10
2018-04-19T03:27:58.551Z,13.18
2018-04-19T03:30:26.079Z,12.37
2018-04-19T03:32:53.755Z,11.80
2018-04-19T03:35:21.355Z,11.87
2018-04-19T03:37:49.293Z,11.07
2018-04-19T03:40:17.096Z,11.63
2018-04-19T03:42:44.623Z,11.83
2018-04-19T03:45:12.324Z,11.30
2018-04-19T03:47:39.860Z,9.40
2018-04-19T03:50:07.613Z,9.73
2018-04-19T03:52:36.073Z,10.77
2018-04-19T03:55:03.620Z,10.27
2018-04-19T03:57:31.414Z,10.83
2018-04-19T04:00:00.013Z,10.15
2018-04-19T04:02:27.601Z,10.47
2018-04-19T04:04:55.314Z,9.87
2018-04-19T04:07:23.095Z,9.87
2018-04-19T04:09:50.828Z,10.20
2018-04-19T04:12:18.635Z,10.27
2018-04-19T04:14:46.433Z,11.40
2018-04-19T04:17:25.886Z,12.40
2018-04-19T04:20:05.524Z,11.07
2018-04-19T04:22:45.264Z,12.90
2018-04-19T04:25:12.826Z,11.40
2018-04-19T04:27:40.577Z,11.67
2018-04-19T04:30:08.115Z,10.70
2018-04-19T04:32:36.503Z,11.00
2018-04-19T04:35:04.155Z,10.70
2018-04-19T04:37:31.915Z,12.10
2018-04-19T04:40:00.036Z,12.93
2018-04-19T04:42:27.729Z,12.43
2018-04-19T04:44:55.461Z,12.03
2018-04-19T04:47:23.084Z,12.10
2018-04-19T04:49:50.653Z,11.20
2018-04-19T04:52:18.271Z,11.03
2018-04-19T04:54:46.570Z,11.67
2018-04-19T04:57:14.191Z,12.13
2018-04-19T04:59:41.989Z,11.67
2018-04-19T05:02:09.559Z,12.70
2018-04-19T05:04:37.704Z,11.83
2018-04-19T05:07:05.390Z,30.13
2018-04-19T05:09:33.102Z,11.90
2018-04-19T05:12:00.729Z,12.80
2018-04-19T05:14:28.311Z,12.47
2018-04-19T05:16:55.829Z,15.43
2018-04-19T05:19:23.386Z,14.50
2018-04-19T05:21:51.399Z,13.50
2018-04-19T05:24:19.232Z,14.07
2018-04-19T05:26:46.907Z,15.67
2018-04-19T05:29:14.582Z,14.80
2018-04-19T05:31:42.385Z,14.30
2018-04-19T05:34:09.920Z,13.53
2018-04-19T05:36:37.612Z,15.33
2018-04-19T05:39:05.227Z,12.13
2018-04-19T05:41:32.766Z,15.20
2018-04-19T05:44:00.339Z,12.67
2018-04-19T05:46:28.030Z,12.93
2018-04-19T05:48:55.986Z,12.03
2018-04-19T05:51:23.687Z,11.80
2018-04-19T05:53:51.265Z,12.50
2018-04-19T05:56:19.075Z,12.17
2018-04-19T05:58:46.647Z,12.80
2018-04-19T06:01:14.708Z,12.00
2018-04-19T06:03:42.457Z,11.70
2018-04-19T06:06:10.044Z,12.77
2018-04-19T06:08:37.973Z,11.53
2018-04-19T06:11:05.660Z,11.40
2018-04-19T06:13:33.196Z,11.23
2018-04-19T06:16:00.919Z,11.93
2018-04-19T06:18:28.755Z,11.03
2018-04-19T06:20:56.620Z,10.90
2018-04-19T06:23:24.194Z,11.67
2018-04-19T06:25:52.430Z,10.60
2018-04-19T06:28:20.060Z,11.63
2018-04-19T06:30:48.216Z,11.30
2018-04-19T06:33:15.874Z,11.20
2018-04-19T06:35:44.401Z,11.43
2018-04-19T06:38:12.040Z,12.03
2018-04-19T06:40:39.605Z,19.33
2018-04-19T06:43:08.002Z,15.43
2018-04-19T06:45:35.567Z,12.98
2018-04-19T06:48:03.126Z,12.53
2018-04-19T06:50:30.767Z,11.53
2018-04-19T06:52:58.307Z,11.03
2018-04-19T06:55:26.080Z,15.83
2018-04-19T06:57:53.736Z,12.93
2018-04-19T07:00:21.396Z,11.20
2018-04-19T07:02:49.117Z,10.80
2018-04-19T07:05:17.411Z,10.32
2018-04-19T07:07:45.100Z,9.10
2018-04-19T07:10:12.851Z,9.50
2018-04-19T07:12:40.383Z,10.80
2018-04-19T07:15:08.375Z,10.20
2018-04-19T07:17:35.918Z,11.00
2018-04-19T07:20:03.551Z,16.03
2018-04-19T07:22:31.171Z,15.90
2018-04-19T07:24:58.721Z,8.33
2018-04-19T07:27:26.558Z,8.70
2018-04-19T07:29:54.165Z,8.80
2018-04-19T07:32:21.839Z,8.70
2018-04-19T07:34:49.460Z,7.63
2018-04-19T07:37:17.002Z,6.90
2018-04-19T07:39:44.565Z,19.00
2018-04-19T07:42:12.147Z,7.27
2018-04-19T07:44:40.502Z,8.27
2018-04-19T07:47:08.157Z,7.00
2018-04-19T07:49:35.857Z,8.67
2018-04-19T07:52:04.555Z,5.40
2018-04-19T07:54:32.340Z,5.63
2018-04-19T07:57:00.080Z,5.00
2018-04-19T07:59:27.909Z,6.00
2018-04-19T08:01:55.490Z,6.43
2018-04-19T08:04:23.097Z,5.37
2018-04-19T08:06:51.615Z,4.20
2018-04-19T08:09:19.338Z,4.43
2018-04-19T08:11:47.051Z,4.73
2018-04-19T08:14:14.802Z,4.30
2018-04-19T08:16:42.415Z,4.43
2018-04-19T08:19:10.165Z,4.50
2018-04-19T08:21:38.243Z,4.30
2018-04-19T08:24:05.812Z,4.27
2018-04-19T08:26:33.462Z,3.87
2018-04-19T08:29:01.156Z,4.20
2018-04-19T08:31:28.788Z,3.57
2018-04-19T08:33:56.541Z,4.10
2018-04-19T08:36:24.187Z,3.57
2018-04-19T08:38:51.947Z,4.00
2018-04-19T08:41:19.634Z,3.40
2018-04-19T08:43:47.180Z,3.30
2018-04-19T08:46:14.760Z,3.30
2018-04-19T08:48:42.292Z,2.73
2018-04-19T08:51:09.867Z,3.10
2018-04-19T08:53:37.606Z,2.97
2018-04-19T08:56:05.237Z,3.33
2018-04-19T08:58:32.786Z,2.77
2018-04-19T09:01:01.582Z,3.80
2018-04-19T09:03:29.307Z,3.07
2018-04-19T09:05:56.966Z,3.13
2018-04-19T09:08:24.562Z,3.08
2018-04-19T09:10:52.176Z,3.20
2018-04-19T09:13:19.826Z,2.87
2018-04-19T09:15:47.544Z,2.77
2018-04-19T09:18:15.156Z,2.77
2018-04-19T09:20:42.786Z,2.50
2018-04-19T09:23:10.394Z,3.30
2018-04-19T09:25:38.083Z,3.17
2018-04-19T09:28:05.910Z,1.60
2018-04-19T09:30:33.626Z,1.93
2018-04-19T09:33:01.455Z,1.97
2018-04-19T09:35:29.003Z,2.00
2018-04-19T09:37:56.897Z,1.67
2018-04-19T09:40:24.497Z,2.60
2018-04-19T09:42:52.158Z,1.53
2018-04-19T09:45:20.022Z,1.77
2018-04-19T09:47:47.637Z,2.27
2018-04-19T09:50:15.314Z,2.50
2018-04-19T09:52:42.946Z,2.50
2018-04-19T09:55:10.599Z,2.13
2018-04-19T09:57:38.408Z,1.83
2018-04-19T10:00:06.030Z,1.43
2018-04-19T10:02:35.572Z,1.77
2018-04-19T10:05:03.268Z,2.20
2018-04-19T10:07:30.787Z,2.10
2018-04-19T10:09:58.654Z,1.60
2018-04-19T10:12:26.370Z,1.67
2018-04-19T10:14:54.107Z,2.13
2018-04-19T10:17:21.681Z,2.03
2018-04-19T10:19:49.281Z,2.30
2018-04-19T10:22:17.408Z,2.00
2018-04-19T10:24:45.138Z,1.90
2018-04-19T10:27:12.871Z,2.37
2018-04-19T10:29:40.792Z,2.67
2018-04-19T10:32:08.327Z,2.67
2018-04-19T10:34:35.967Z,2.13
2018-04-19T10:37:03.584Z,2.37
2018-04-19T10:39:31.222Z,2.63
2018-04-19T10:41:59.008Z,2.40
2018-04-19T10:44:26.742Z,2.40
2018-04-19T10:46:54.483Z,2.42
2018-04-19T10:49:22.077Z,2.30
2018-04-19T10:51:49.657Z,2.50
2018-04-19T10:54:17.518Z,2.60
2018-04-19T10:56:45.239Z,2.30
2018-04-19T10:59:12.833Z,2.57
2018-04-19T11:01:40.371Z,2.87
2018-04-19T11:04:07.967Z,3.20
2018-04-19T11:06:35.747Z,2.90
2018-04-19T11:09:03.447Z,3.03
2018-04-19T11:11:31.210Z,2.07
2018-04-19T11:13:58.813Z,2.43
2018-04-19T11:16:26.433Z,2.27
2018-04-19T11:18:54.075Z,1.97
2018-04-19T11:21:21.819Z,2.30
2018-04-19T11:23:50.432Z,2.77
2018-04-19T11:26:18.097Z,2.30
2018-04-19T11:28:45.851Z,12.67
2018-04-19T11:31:13.612Z,2.00
2018-04-19T11:33:41.172Z,2.23
2018-04-19T11:36:08.965Z,2.70
2018-04-19T11:38:36.713Z,2.70
2018-04-19T11:41:04.303Z,2.58
2018-04-19T11:43:32.585Z,2.40
2018-04-19T11:46:00.127Z,2.40
2018-04-19T11:48:27.761Z,2.47
2018-04-19T11:50:55.337Z,2.30
2018-04-19T11:53:22.937Z,2.43
2018-04-19T11:55:50.787Z,1.70
2018-04-19T11:58:18.467Z,1.93
2018-04-19T12:00:46.333Z,1.70
2018-04-19T12:03:13.854Z,2.33
2018-04-19T12:05:41.940Z,2.40
2018-04-19T12:08:09.462Z,1.87
2018-04-19T12:10:37.152Z,2.67
2018-04-19T12:13:04.708Z,2.60
2018-04-19T12:15:32.274Z,2.53
2018-04-19T12:18:00.213Z,4.00
2018-04-19T12:20:28.575Z,2.43
2018-04-19T12:22:56.217Z,3.03
2018-04-19T12:25:23.995Z,3.40
2018-04-19T12:27:53.264Z,2.70
2018-04-19T12:30:20.832Z,2.40
2018-04-19T12:32:48.533Z,2.83
2018-04-19T12:35:16.090Z,5.17
2018-04-19T12:37:44.114Z,3.17
2018-04-19T12:40:11.620Z,3.20
2018-04-19T12:42:39.408Z,4.23
2018-04-19T12:45:07.114Z,3.53
2018-04-19T12:47:35.537Z,3.80
2018-04-19T12:50:03.417Z,3.87
2018-04-19T12:52:31.124Z,5.10
2018-04-19T12:54:58.728Z,5.40
2018-04-19T12:57:26.855Z,7.30
2018-04-19T12:59:54.562Z,5.87
2018-04-19T13:02:22.093Z,6.72
2018-04-19T13:04:49.649Z,6.90
2018-04-19T13:07:17.222Z,7.60
2018-04-19T13:09:45.024Z,8.70
2018-04-19T13:12:12.557Z,7.83
2018-04-19T13:14:40.184Z,6.20
2018-04-19T13:17:07.717Z,8.00
2018-04-19T13:19:35.260Z,9.10
2018-04-19T13:22:02.950Z,6.70
2018-04-19T13:24:31.165Z,8.43
2018-04-19T13:26:58.869Z,7.30
2018-04-19T13:29:26.622Z,7.17
2018-04-19T13:31:54.258Z,8.80
2018-04-19T13:34:22.189Z,8.40
2018-04-19T13:36:50.003Z,10.60
2018-04-19T13:39:17.557Z,8.73
2018-04-19T13:41:45.277Z,7.80
2018-04-19T13:44:12.842Z,8.53
2018-04-19T13:46:40.595Z,9.10
2018-04-19T13:49:08.110Z,9.23
2018-04-19T13:51:35.635Z,9.60
2018-04-19T13:54:03.405Z,6.67
2018-04-19T13:56:31.107Z,8.43
2018-04-19T13:58:58.766Z,8.03
2018-04-19T14:01:26.565Z,7.90
2018-04-19T14:03:54.273Z,7.07
2018-04-19T14:06:21.805Z,8.90
2018-04-19T14:08:49.404Z,10.27
2018-04-19T14:11:17.080Z,8.18
2018-04-19T14:13:44.733Z,10.37
2018-04-19T14:16:12.923Z,8.23
2018-04-19T14:18:40.701Z,8.20
2018-04-19T14:21:08.425Z,9.77
2018-04-19T14:23:36.163Z,6.90
2018-04-19T14:26:03.933Z,8.67
2018-04-19T14:28:31.799Z,7.43
2018-04-19T14:30:59.521Z,8.43
2018-04-19T14:33:27.091Z,7.03
2018-04-19T14:35:54.749Z,7.20
2018-04-19T14:38:23.131Z,6.70
2018-04-19T14:40:50.685Z,7.75
2018-04-19T14:43:18.450Z,7.93
2018-04-19T14:45:46.189Z,6.90
2018-04-19T14:48:13.858Z,5.70
2018-04-19T14:50:41.469Z,6.73
2018-04-19T14:53:09.026Z,8.07
2018-04-19T14:55:36.656Z,8.67
2018-04-19T14:58:04.425Z,6.83
2018-04-19T15:00:32.266Z,6.43
2018-04-19T15:02:59.832Z,6.20
2018-04-19T15:05:27.598Z,7.17
2018-04-19T15:07:55.290Z,5.90
2018-04-19T15:10:23.228Z,8.03
2018-04-19T15:12:50.790Z,6.87
2018-04-19T15:15:18.434Z,8.80
2018-04-19T15:17:46.145Z,6.83
2018-04-19T15:20:13.786Z,5.30
2018-04-19T15:22:41.327Z,7.50
2018-04-19T15:25:08.959Z,6.47
2018-04-19T15:27:36.519Z,5.67
2018-04-19T15:30:04.124Z,8.27
2018-04-19T15:32:31.850Z,5.30
2018-04-19T15:34:59.578Z,5.40
2018-04-19T15:37:27.113Z,4.43
2018-04-19T15:39:54.643Z,5.43
2018-04-19T15:42:22.756Z,6.10
2018-04-19T15:44:50.676Z,6.43
2018-04-19T15:47:18.389Z,6.10
2018-04-19T15:49:45.950Z,5.87
2018-04-19T15:52:13.906Z,8.30
2018-04-19T15:54:41.462Z,5.90
2018-04-19T15:57:09.155Z,5.10
2018-04-19T15:59:36.946Z,6.13
2018-04-19T16:02:04.602Z,5.63
2018-04-19T16:04:32.221Z,4.60
2018-04-19T16:06:59.855Z,5.00
2018-04-19T16:09:28.408Z,4.70
2018-04-19T16:11:56.166Z,4.53
2018-04-19T16:14:23.732Z,5.30
2018-04-19T16:16:51.344Z,5.30
2018-04-19T16:19:19.687Z,4.60
2018-04-19T16:21:47.825Z,5.10
2018-04-19T16:24:16.045Z,5.80
2018-04-19T16:26:43.756Z,5.00
2018-04-19T16:29:11.499Z,4.50
2018-04-19T16:31:39.249Z,4.80
2018-04-19T16:34:06.863Z,4.70
2018-04-19T16:36:34.429Z,4.97
2018-04-19T16:39:01.978Z,4.83
2018-04-19T16:41:29.523Z,5.00
2018-04-19T16:43:57.401Z,4.90
2018-04-19T16:46:25.277Z,4.67
2018-04-19T16:48:53.006Z,4.33
2018-04-19T16:51:20.571Z,5.07
2018-04-19T16:53:48.327Z,5.00
2018-04-19T16:56:16.065Z,5.30
2018-04-19T16:58:43.637Z,4.68
2018-04-19T17:01:11.254Z,4.13
2018-04-19T17:03:39.646Z,5.47
2018-04-19T17:06:07.218Z,5.47
2018-04-19T17:08:34.983Z,4.60
2018-04-19T17:11:02.661Z,5.00
2018-04-19T17:13:30.341Z,6.20
2018-04-19T17:15:58.053Z,4.30
2018-04-19T17:18:25.784Z,4.63
2018-04-19T17:20:53.373Z,5.37
2018-04-19T17:23:20.966Z,5.45
2018-04-19T17:25:48.522Z,5.33
2018-04-19T17:28:16.037Z,4.90
2018-04-19T17:30:43.707Z,5.40
2018-04-19T17:33:11.350Z,5.33
2018-04-19T17:35:38.880Z,5.50
2018-04-19T17:38:06.426Z,5.10
2018-04-19T17:40:34.125Z,5.40
2018-04-19T17:43:01.734Z,4.43
2018-04-19T17:45:29.597Z,5.57
2018-04-19T17:47:57.278Z,4.53
2018-04-19T17:50:25.150Z,4.50
2018-04-19T17:52:52.728Z,3.60
2018-04-19T17:55:20.294Z,5.13
2018-04-19T17:57:47.913Z,5.20
2018-04-19T18:00:15.560Z,4.97
2018-04-19T18:02:43.307Z,4.20
2018-04-19T18:05:10.867Z,4.97
2018-04-19T18:07:39.108Z,4.60
2018-04-19T18:10:06.707Z,4.50
2018-04-19T18:12:34.693Z,4.43
2018-04-19T18:15:02.477Z,4.87
2018-04-19T18:17:30.152Z,4.20
2018-04-19T18:19:57.878Z,5.20
2018-04-19T18:22:25.409Z,4.47
2018-04-19T18:24:53.015Z,7.47
2018-04-19T18:27:21.151Z,5.37
2018-04-19T18:29:48.833Z,5.00
2018-04-19T18:32:16.839Z,4.80
2018-04-19T18:34:44.643Z,4.93
2018-04-19T18:37:12.360Z,5.17
2018-04-19T18:39:40.009Z,4.00
2018-04-19T18:42:07.634Z,5.27
2018-04-19T18:44:35.188Z,4.73
2018-04-19T18:47:02.823Z,4.80
2018-04-19T18:49:30.430Z,5.03
2018-04-19T18:51:57.965Z,4.40
2018-04-19T18:54:25.574Z,4.03
2018-04-19T18:56:53.182Z,4.60
2018-04-19T18:59:20.760Z,4.87
2018-04-19T19:01:48.332Z,5.07
2018-04-19T19:04:16.102Z,5.85
2018-04-19T19:06:44.450Z,4.53
2018-04-19T19:09:12.008Z,4.73
2018-04-19T19:11:39.774Z,4.90
2018-04-19T19:14:07.360Z,5.53
2018-04-19T19:16:35.205Z,4.33
2018-04-19T19:19:15.058Z,3.97
2018-04-19T19:21:42.564Z,4.60
2018-04-19T19:24:11.281Z,4.23
2018-04-19T19:26:38.807Z,5.30
2018-04-19T19:29:06.356Z,5.20
2018-04-19T19:31:33.908Z,4.87
2018-04-19T19:34:01.497Z,4.80
2018-04-19T19:36:29.125Z,5.27
2018-04-19T19:38:56.815Z,5.50
2018-04-19T19:41:24.546Z,4.67
2018-04-19T19:43:52.080Z,5.00
2018-04-19T19:46:19.995Z,5.37
2018-04-19T19:48:47.628Z,5.07
2018-04-19T19:51:15.180Z,5.90
2018-04-19T19:53:42.721Z,5.20
2018-04-19T19:56:10.306Z,5.63
2018-04-19T19:58:37.861Z,6.23
2018-04-19T20:01:05.804Z,6.18
2018-04-19T20:03:33.437Z,5.53
2018-04-19T20:06:01.021Z,5.97
2018-04-19T20:08:28.592Z,5.53
2018-04-19T20:10:56.912Z,6.90
2018-04-19T20:13:24.441Z,6.87
2018-04-19T20:15:52.137Z,6.33
2018-04-19T20:18:19.806Z,5.90
2018-04-19T20:20:47.332Z,5.73
2018-04-19T20:23:15.041Z,6.90
2018-04-19T20:25:42.634Z,6.20
2018-04-19T20:28:10.162Z,6.83
2018-04-19T20:30:37.874Z,6.83
2018-04-19T20:33:05.477Z,6.67
2018-04-19T20:35:33.263Z,7.43
2018-04-19T20:38:01.068Z,6.53
2018-04-19T20:40:28.842Z,6.90
2018-04-19T20:42:56.623Z,7.50
2018-04-19T20:45:24.162Z,7.10
2018-04-19T20:47:51.812Z,6.43
2018-04-19T20:50:19.630Z,6.47
2018-04-19T20:52:47.545Z,7.37
2018-04-19T20:55:15.262Z,7.33
2018-04-19T20:57:42.908Z,6.50
2018-04-19T21:00:10.661Z,6.60
2018-04-19T21:02:38.661Z,6.80
2018-04-19T21:05:06.430Z,6.63
2018-04-19T21:07:34.236Z,7.80
2018-04-19T21:10:01.997Z,7.40
2018-04-19T21:12:29.676Z,6.87
2018-04-19T21:14:57.261Z,6.37
2018-04-19T21:17:24.902Z,7.83
2018-04-19T21:19:52.502Z,6.77
2018-04-19T21:22:20.295Z,6.67
2018-04-19T21:24:48.156Z,6.93
2018-04-19T21:27:15.682Z,6.80
2018-04-19T21:29:43.341Z,7.33
2018-04-19T21:32:10.945Z,7.50
2018-04-19T21:34:38.607Z,7.80
2018-04-19T21:37:06.130Z,7.07
2018-04-19T21:39:33.837Z,7.23
2018-04-19T21:42:01.614Z,6.57
2018-04-19T21:44:29.517Z,6.70
2018-04-19T21:46:57.036Z,6.60
2018-04-19T21:49:25.012Z,6.13
2018-04-19T21:52:00.552Z,6.82
2018-04-19T21:54:28.359Z,6.55
2018-04-19T21:56:55.887Z,7.27
2018-04-19T21:59:24.159Z,7.27
2018-04-19T22:01:51.682Z,6.67
2018-04-19T22:04:19.415Z,6.00
2018-04-19T22:06:47.236Z,6.50
2018-04-19T22:09:14.792Z,6.10
2018-04-19T22:11:42.821Z,6.20
2018-04-19T22:14:10.440Z,6.00
2018-04-19T22:16:38.283Z,5.93
2018-04-19T22:19:05.919Z,6.50
2018-04-19T22:21:33.617Z,6.80
2018-04-19T22:24:01.440Z,5.70
2018-04-19T22:26:28.972Z,6.30
2018-04-19T22:28:56.628Z,6.87
2018-04-19T22:31:24.153Z,6.60
2018-04-19T22:33:51.967Z,7.47
2018-04-19T22:36:19.523Z,6.87
2018-04-19T22:38:47.143Z,7.23
2018-04-19T22:41:14.801Z,7.00
2018-04-19T22:43:42.622Z,7.30
2018-04-19T22:46:10.226Z,6.87
2018-04-19T22:48:37.967Z,7.70
2018-04-19T22:51:05.701Z,6.63
2018-04-19T22:53:33.249Z,7.00
2018-04-19T22:56:00.947Z,6.00
2018-04-19T22:58:28.746Z,6.90
2018-04-19T23:00:57.102Z,7.50
2018-04-19T23:03:24.816Z,6.60
2018-04-19T23:05:52.553Z,6.50
2018-04-19T23:08:20.128Z,6.15
2018-04-19T23:10:47.762Z,6.20
2018-04-19T23:13:15.281Z,7.27
2018-04-19T23:15:42.862Z,7.40
2018-04-19T23:18:10.546Z,6.60
2018-04-19T23:20:38.464Z,6.70
2018-04-19T23:23:06.112Z,6.47
2018-04-19T23:25:33.855Z,6.50
2018-04-19T23:28:01.500Z,7.63
2018-04-19T23:30:29.069Z,7.85
2018-04-19T23:32:56.835Z,6.33
2018-04-19T23:35:24.361Z,7.00
2018-04-19T23:37:51.940Z,6.90
2018-04-19T23:40:19.611Z,6.60
2018-04-19T23:42:47.133Z,6.60
2018-04-19T23:45:15.091Z,6.07
2018-04-19T23:47:42.623Z,6.40
2018-04-19T23:50:10.176Z,6.70
2018-04-19T23:52:37.930Z,7.40
2018-04-19T23:55:06.174Z,7.00
2018-04-19T23:57:33.686Z,6.83
